Historyczne dane pomiarowe

Dodano dane terminowe – wersja testowa.

Dane z okresu 1951-2019

Wersja bazy: 1.34 [2019-03-16, lista zmian], aktualizacja planowana na 2019-04-15

Dane meteo z obszaru Polski uzyskane na podstawie danych udostępnionych przez Instytut Meteorologii i Gospodarki Wodnej – Państwowy Instytut Badawczy.

 

Wybierz Datę:    

       

TemperaturaWilgotnośćWiatrCiśnienieOpadyŚniegCzas trwania zjawisk
 Stacja t tx tn tng RH VA  wxwx mslp ppp RRR   cm mm wxwxwxwxwxwxwx
1994-08-14 12.6 17.1 9.5- 80.3- 6.7 5.3---- 2.8------------
1994-08-13 17.5 22.9 12.5- 83.0- 7.3 8.0---- 2.7------------
1994-08-12 18.4 23.8 15.5- 84.8- 6.7 1.7---- 1.4------------
1994-08-11 19.5 24.0 14.0- 78.0- 7.0 2.7---- 2.9------------
1994-08-10 19.7 26.9 12.2- 73.8- 6.3 1.0---- 0.0------------
1994-08-09 18.2 24.2 15.6- 93.0- 7.7 1.3---- 4.1------------
1994-08-08 21.1 26.3 17.3- 81.5- 6.3 1.7---- 0.2------------
1994-08-07 23.1 27.7 16.9- 73.3- 4.0 2.7---- 1.3------------
1994-08-06 26.3 34.1 18.5- 56.8- 2.7 2.3---- 0.1------------
1994-08-05 25.2 32.3 17.2- 70.3- 2.7 1.7---- 0.0------------
1994-08-04 23.0 29.0 15.8- 70.8- 1.3 1.7---- 0.0------------
1994-08-03 24.5 29.3 19.6- 75.3- 3.7 3.3---- 0.0------------
1994-08-02 26.9 34.0 19.9- 60.8- 3.3 2.0---- 0.0------------
1994-08-01 27.8 36.6 17.9- 66.3- 2.7 1.0---- 0.0------------
1994-07-31 28.1 35.2 17.3- 55.8- 3.0 2.7---- 0.0------------
1994-07-30 28.1 35.6 17.2- 56.0- 1.3 1.0---- 0.0------------
1994-07-29 26.3 35.0 15.2- 64.5- 0.7 1.0---- 0.0------------
1994-07-28 25.7 34.1 15.1- 57.8- 2.0 1.7---- 0.0------------
1994-07-27 25.4 33.7 14.2- 57.0- 1.3 1.0---- 0.0------------
1994-07-26 25.4 33.1 16.7- 59.0- 1.0 1.0---- 0.0------------
1994-07-25 25.1 31.7 14.5- 59.3- 1.7 2.0---- 0.0------------
1994-07-24 23.6 30.3 11.5- 57.3- 2.0 1.3---- 0.0------------
1994-07-23 22.6 28.6 11.4- 68.0- 1.0 1.7---- 0.0------------
1994-07-22 20.9 26.8 11.5- 67.8- 1.0 1.7---- 0.0------------
1994-07-21 20.5 28.0 9.2- 63.0- 1.0 1.3---- 0.0------------
1994-07-20 18.5 24.0 8.9- 64.0- 1.3 1.7---- 0.0------------
1994-07-19 18.1 22.7 10.7- 59.5- 3.3 3.0---- 0.0------------
1994-07-18 19.8 24.0 14.2- 75.5- 3.7 1.7---- 0.0------------
1994-07-17 21.6 26.7 16.9- 76.3- 5.7 1.0---- 0.0------------
1994-07-16 23.1 29.1 17.8- 75.5- 4.3 2.0---- 16.3------------
1994-07-15 24.8 30.2 17.2- 68.5- 1.7 1.0---- 0.0------------
1994-07-14 23.9 31.0 15.5- 69.8- 4.7 2.3---- 0.0------------
1994-07-13 24.1 30.0 16.2- 58.3- 1.3 2.0---- 0.0------------
1994-07-12 23.4 28.0 14.6- 65.8- 1.0 2.0---- 0.0------------
1994-07-11 20.5 27.2 12.8- 69.0- 3.0 2.7---- 0.0------------
1994-07-10 18.1 25.0 11.8- 77.8- 6.0 3.3---- 0.4------------
1994-07-09 14.8 18.6 11.0- 85.0- 7.3 2.0---- 0.7------------
1994-07-08 14.7 23.6 12.4- 90.8- 8.0 5.7---- 19.5------------
1994-07-07 19.2 26.5 9.2- 61.8- 2.3 1.0---- 8.4------------
1994-07-06 18.3 24.2 10.2- 69.8- 1.7 1.7---- 0.0------------
1994-07-05 19.3 25.2 10.2- 61.8- 3.0 1.3---- 0.0------------
1994-07-04 20.6 26.7 11.2- 57.5- 1.0 1.7---- 0.0------------
1994-07-03 19.1 25.8 9.9- 50.3- 2.3 1.7---- 0.0------------
1994-07-02 17.5 24.0 8.2- 62.5- 1.0 1.7---- 0.0------------
1994-07-01 16.9 22.5 8.0- 67.3- 3.7 3.7---- 0.0------------
1994-06-30 20.5 26.7 18.0 16.7 70.3- 6.7 3.3---- 0.0------------
1994-06-29 25.0 31.6 16.1 12.9 62.0- 1.3 1.7---- 0.0------------
1994-06-28 23.2 28.5 14.9 12.8 68.8- 1.0 0.7---- 0.0------------
1994-06-27 22.2 29.5 12.9 14.6 71.0- 2.0 2.0---- 0.0------------
1994-06-26 20.6 30.3 10.6 6.2 61.5- 2.0 3.0---- 0.0------------
1994-06-25 16.7 23.3 4.5 1.6 59.0- 1.7 1.3---- 0.0------------
1994-06-24 14.2 19.1 7.5 5.8 57.3- 3.0 8.0---- 0.0------------
1994-06-23 16.3 21.3 11.9 11.2 55.3- 4.7 9.7---- 0.0------------
1994-06-22 18.2 24.7 12.0 9.8 68.3- 6.3 6.0---- 0.0------------
1994-06-21 15.2 20.7 6.2 3.5 65.0- 3.0 1.7---- 0.0------------
1994-06-20 15.9 19.6 13.1 12.8 65.0- 5.7 6.0---- 0.0------------
1994-06-19 15.9 20.8 10.7 11.0 77.3- 7.3 5.7---- 0.3------------
1994-06-18 12.7 18.5 7.9 3.3 71.0- 6.0 3.0---- 6.1------------
1994-06-17 10.7 15.0 7.7 8.5 73.8- 6.0 7.3---- 0.0------------
1994-06-16 11.7 15.4 8.2 5.0 70.5- 7.3 5.7---- 5.6------------
280.8 ms

 

Źródłem pochodzenia danych jest Instytut Meteorologii i Gospodarki Wodnej – Państwowy Instytut Badawczy. Dane Instytutu Meteorologii i Gospodarki Wodnej – Państwowego Instytutu Badawczego zostały przetworzone.

Dane źródłowe można odnaleźć na stronie https://dane.imgw.pl